Time;durP1;ratioP1;P1;durP2;ratioP2;P2;SDS_P1;SDS_P2;PMS_P1;PMS_P2;Temp;Humidity;BMP_temperature;BMP_pressure;BME280_temperature;BME280_humidity;BME280_pressure;Samples;Min_cycle;Max_cycle;Signal;HPM_P1;HPM_P2
2023/07/02 00:00:59;;;;;;;5.17;3.63;;;18.00;99.90;;;;;;5082894;28;20216;-69
2023/07/02 00:03:25;;;;;;;3.70;3.40;;;17.90;99.90;;;;;;5083270;28;20185;-69
2023/07/02 00:05:54;;;;;;;3.07;2.87;;;17.90;99.90;;;;;;5082003;28;20981;-69
2023/07/02 00:08:21;;;;;;;3.90;3.30;;;17.90;99.90;;;;;;5083047;28;20186;-69
2023/07/02 00:10:46;;;;;;;3.73;3.30;;;17.90;99.90;;;;;;5080226;28;21105;-69
2023/07/02 00:13:12;;;;;;;4.20;3.73;;;17.90;99.90;;;;;;5080684;28;20506;-69
2023/07/02 00:15:38;;;;;;;3.77;3.47;;;17.90;99.90;;;;;;5086187;28;20177;-69
2023/07/02 00:18:04;;;;;;;5.00;3.40;;;17.90;99.90;;;;;;5081031;28;20180;-69
2023/07/02 00:20:30;;;;;;;4.77;3.53;;;17.90;99.90;;;;;;5082354;28;20196;-69
2023/07/02 00:22:56;;;;;;;4.03;3.60;;;17.90;99.90;;;;;;5079298;28;20177;-69
2023/07/02 00:25:22;;;;;;;4.60;3.80;;;17.90;99.90;;;;;;5080861;28;20422;-69
2023/07/02 00:27:47;;;;;;;4.33;3.50;;;17.90;99.90;;;;;;5091625;28;20422;-69
2023/07/02 00:30:13;;;;;;;5.40;4.00;;;17.90;99.90;;;;;;5084107;28;20783;-69
2023/07/02 00:32:39;;;;;;;3.60;2.93;;;17.90;99.90;;;;;;5075473;28;20210;-69
2023/07/02 00:35:05;;;;;;;4.70;3.60;;;17.90;99.90;;;;;;5082119;28;20417;-69
2023/07/02 00:37:31;;;;;;;6.57;3.80;;;17.90;99.90;;;;;;5082513;28;20263;-69
2023/07/02 00:39:57;;;;;;;5.50;3.87;;;18.00;99.90;;;;;;5081472;28;20268;-69
2023/07/02 00:42:23;;;;;;;4.00;3.57;;;18.00;99.90;;;;;;5081889;28;20676;-69
2023/07/02 00:44:52;;;;;;;5.50;4.20;;;18.00;99.90;;;;;;5079871;28;20498;-69
2023/07/02 00:47:18;;;;;;;4.63;4.00;;;17.90;99.90;;;;;;5080975;28;20511;-70
2023/07/02 00:49:43;;;;;;;4.60;3.93;;;17.90;99.90;;;;;;5086380;28;20491;-70
2023/07/02 00:52:10;;;;;;;4.50;3.37;;;17.90;99.90;;;;;;5073579;28;20223;-69
2023/07/02 00:54:36;;;;;;;3.87;3.50;;;17.90;99.90;;;;;;5085873;28;20425;-69
2023/07/02 00:57:03;;;;;;;5.70;4.00;;;17.90;99.90;;;;;;5087258;28;20422;-70
2023/07/02 00:59:30;;;;;;;5.87;4.40;;;17.90;99.90;;;;;;5088939;28;21036;-69
2023/07/02 01:01:56;;;;;;;7.23;4.20;;;17.80;99.90;;;;;;5088470;28;20419;-69
2023/07/02 01:04:27;;;;;;;4.10;3.50;;;17.80;99.90;;;;;;5087394;28;20441;-68
2023/07/02 01:06:57;;;;;;;4.67;4.13;;;17.80;99.90;;;;;;5088554;28;20440;-69
2023/07/02 01:09:25;;;;;;;8.83;4.90;;;17.80;99.90;;;;;;5088348;28;20415;-69
2023/07/02 01:11:54;;;;;;;6.33;4.10;;;17.80;99.90;;;;;;5088606;28;20410;-69
2023/07/02 01:14:36;;;;;;;5.70;3.90;;;17.80;99.90;;;;;;5087444;28;20844;-69
2023/07/02 01:17:05;;;;;;;6.70;4.23;;;17.80;99.90;;;;;;5088646;28;20817;-69
2023/07/02 01:19:45;;;;;;;5.80;4.23;;;17.80;99.90;;;;;;5088280;28;20916;-70
2023/07/02 01:22:12;;;;;;;6.17;4.03;;;17.90;99.90;;;;;;5087978;28;20406;-69
2023/07/02 01:24:41;;;;;;;8.63;4.27;;;17.90;99.90;;;;;;5088031;28;20414;-69
2023/07/02 01:27:07;;;;;;;5.77;3.97;;;17.80;99.90;;;;;;5098242;28;20957;-69
2023/07/02 01:29:36;;;;;;;6.90;4.20;;;17.70;99.90;;;;;;5107327;28;20413;-69
2023/07/02 01:32:02;;;;;;;7.43;4.40;;;17.70;99.90;;;;;;5108401;28;21038;-69
2023/07/02 01:34:28;;;;;;;6.90;5.13;;;17.70;99.90;;;;;;5108290;28;20457;-69
2023/07/02 01:36:54;;;;;;;8.17;4.70;;;17.80;99.90;;;;;;5108826;28;20955;-69
2023/07/02 01:39:19;;;;;;;5.63;4.20;;;17.80;99.90;;;;;;5108519;28;20203;-69
2023/07/02 01:42:06;;;;;;;4.67;3.83;;;17.80;99.90;;;;;;5108688;28;20207;-69
2023/07/02 01:44:32;;;;;;;7.23;4.67;;;17.70;99.90;;;;;;5108876;28;20237;-70
2023/07/02 01:46:58;;;;;;;7.23;4.17;;;17.70;99.90;;;;;;5112480;28;20847;-69
2023/07/02 01:49:24;;;;;;;7.23;4.90;;;17.70;99.90;;;;;;5112176;28;20203;-70
2023/07/02 01:51:54;;;;;;;8.57;4.90;;;17.70;99.90;;;;;;5112324;28;20464;-69
2023/07/02 01:54:21;;;;;;;5.30;4.20;;;17.70;99.90;;;;;;5111069;28;20563;-69
2023/07/02 01:56:47;;;;;;;6.20;4.70;;;17.60;99.90;;;;;;5111130;28;20803;-70
2023/07/02 01:59:12;;;;;;;5.07;4.57;;;17.60;99.90;;;;;;5112167;28;20405;-70
2023/07/02 02:01:42;;;;;;;7.03;4.10;;;17.50;99.90;;;;;;5111967;28;20292;-69
2023/07/02 02:04:08;;;;;;;8.90;4.60;;;17.50;99.90;;;;;;5111040;28;20270;-69
2023/07/02 02:06:34;;;;;;;6.87;4.70;;;17.50;99.90;;;;;;5108998;28;20509;-70
2023/07/02 02:09:00;;;;;;;9.03;5.20;;;17.50;99.90;;;;;;5091531;28;20510;-70
2023/07/02 02:11:26;;;;;;;8.20;5.40;;;17.50;99.90;;;;;;5090160;28;21269;-69
2023/07/02 02:13:51;;;;;;;11.47;5.37;;;17.40;99.90;;;;;;5090557;28;20473;-69
2023/07/02 02:16:17;;;;;;;7.20;5.07;;;17.30;99.90;;;;;;5088108;28;20180;-69
2023/07/02 02:18:43;;;;;;;11.33;5.70;;;17.30;99.90;;;;;;5091180;28;20215;-69
2023/07/02 02:21:09;;;;;;;7.90;5.23;;;17.30;99.90;;;;;;5091286;28;20197;-69
2023/07/02 02:23:34;;;;;;;9.23;4.93;;;17.30;99.90;;;;;;5090373;28;20212;-69
2023/07/02 02:26:00;;;;;;;8.70;5.53;;;17.30;99.90;;;;;;5090974;28;20188;-69
2023/07/02 02:28:26;;;;;;;11.60;5.77;;;17.30;99.90;;;;;;5089634;28;20188;-69
2023/07/02 02:30:51;;;;;;;6.10;5.50;;;17.30;99.90;;;;;;5091072;28;20201;-69
2023/07/02 02:33:17;;;;;;;10.60;5.03;;;17.30;99.90;;;;;;5090039;28;20302;-69
2023/07/02 02:35:43;;;;;;;8.83;6.03;;;17.30;99.90;;;;;;5091072;28;20216;-70
2023/07/02 02:38:08;;;;;;;9.80;5.63;;;17.20;99.90;;;;;;5090804;28;20651;-70
2023/07/02 02:40:34;;;;;;;9.20;6.20;;;17.20;99.90;;;;;;5090687;28;20193;-70
2023/07/02 02:43:00;;;;;;;12.33;5.87;;;17.20;99.90;;;;;;5090015;28;20926;-69
2023/07/02 02:45:26;;;;;;;8.87;5.83;;;17.20;99.90;;;;;;5090546;28;20951;-69
2023/07/02 02:47:51;;;;;;;11.30;7.00;;;17.20;99.90;;;;;;5090789;28;20210;-70
2023/07/02 02:50:17;;;;;;;13.63;6.57;;;17.20;99.90;;;;;;5090381;28;20261;-69
2023/07/02 02:52:43;;;;;;;8.77;6.80;;;17.30;99.90;;;;;;5088677;28;20209;-69
2023/07/02 02:55:10;;;;;;;12.10;6.77;;;17.20;99.90;;;;;;5090302;28;20180;-69
2023/07/02 02:57:36;;;;;;;8.60;6.10;;;17.30;99.90;;;;;;5089761;28;20180;-68
2023/07/02 03:00:02;;;;;;;10.53;6.73;;;17.30;99.90;;;;;;5089233;28;20786;-69
2023/07/02 03:02:28;;;;;;;11.03;7.10;;;17.10;99.90;;;;;;5089917;28;20410;-69
2023/07/02 03:04:54;;;;;;;10.30;7.23;;;17.10;99.90;;;;;;5090196;28;20441;-69
2023/07/02 03:07:20;;;;;;;13.93;7.27;;;17.00;99.90;;;;;;5090208;28;20321;-69
2023/07/02 03:09:45;;;;;;;13.07;7.57;;;17.00;99.90;;;;;;5090297;28;20518;-68
2023/07/02 03:12:11;;;;;;;11.93;8.40;;;17.00;99.90;;;;;;5088533;28;20199;-68
2023/07/02 03:14:37;;;;;;;12.33;7.80;;;17.00;99.90;;;;;;5089837;28;20200;-68
2023/07/02 03:17:03;;;;;;;13.90;7.67;;;17.00;99.90;;;;;;5090492;28;20510;-69
2023/07/02 03:19:28;;;;;;;9.73;7.33;;;17.00;99.90;;;;;;5089859;28;20184;-69
2023/07/02 03:21:54;;;;;;;11.63;8.03;;;17.00;99.90;;;;;;5089982;28;20958;-68
2023/07/02 03:24:20;;;;;;;14.27;7.90;;;17.10;99.90;;;;;;5089168;28;20183;-68
2023/07/02 03:26:46;;;;;;;11.43;7.33;;;17.10;99.90;;;;;;5090152;28;20179;-68
2023/07/02 03:29:11;;;;;;;15.83;8.37;;;17.10;99.90;;;;;;5090053;28;20745;-69
2023/07/02 03:31:38;;;;;;;15.53;9.40;;;17.10;99.90;;;;;;5089930;28;20566;-68
2023/07/02 03:34:06;;;;;;;13.00;9.13;;;17.10;99.90;;;;;;5088960;28;20761;-68
2023/07/02 03:36:32;;;;;;;12.37;8.30;;;17.10;99.90;;;;;;5089785;28;20425;-68
2023/07/02 03:38:58;;;;;;;16.53;8.60;;;17.10;99.90;;;;;;5089832;28;20923;-68
2023/07/02 03:41:23;;;;;;;13.00;9.80;;;17.00;99.90;;;;;;5089702;28;20234;-68
2023/07/02 03:43:49;;;;;;;17.83;10.67;;;17.00;99.90;;;;;;5088820;28;20418;-69
2023/07/02 03:46:15;;;;;;;13.20;8.77;;;17.00;99.90;;;;;;5089677;28;20583;-68
2023/07/02 03:48:41;;;;;;;12.90;9.20;;;17.00;99.90;;;;;;5089706;28;20204;-69
2023/07/02 03:51:07;;;;;;;15.23;9.10;;;17.00;99.90;;;;;;5089479;28;20193;-69
2023/07/02 03:53:32;;;;;;;12.17;8.53;;;17.00;99.90;;;;;;5088235;28;20269;-68
2023/07/02 03:55:58;;;;;;;17.53;10.13;;;17.00;99.90;;;;;;5089481;28;20407;-68
2023/07/02 03:58:24;;;;;;;15.20;9.90;;;17.00;99.90;;;;;;5089624;28;20184;-68
2023/07/02 04:00:50;;;;;;;17.07;10.23;;;17.00;99.90;;;;;;5089312;28;20188;-68
2023/07/02 04:03:16;;;;;;;14.10;10.03;;;16.90;99.90;;;;;;5088281;28;20911;-68
2023/07/02 04:05:42;;;;;;;12.27;9.60;;;17.00;99.90;;;;;;5089477;28;20207;-68
2023/07/02 04:08:08;;;;;;;17.00;10.10;;;17.00;99.90;;;;;;5089084;28;20475;-68
2023/07/02 04:10:34;;;;;;;15.30;10.10;;;17.00;99.90;;;;;;5089315;28;20430;-68
2023/07/02 04:12:59;;;;;;;14.07;10.10;;;17.00;99.90;;;;;;5088255;28;20234;-68
2023/07/02 04:15:26;;;;;;;20.90;9.97;;;16.90;99.90;;;;;;5089130;28;20177;-68
2023/07/02 04:17:52;;;;;;;17.00;10.03;;;16.90;99.90;;;;;;5081888;28;20168;-69
2023/07/02 04:20:19;;;;;;;15.17;9.90;;;17.00;99.90;;;;;;5088966;28;20441;-69
2023/07/02 04:22:47;;;;;;;15.97;9.97;;;17.00;99.90;;;;;;5088409;28;20464;-69
2023/07/02 04:25:15;;;;;;;17.53;9.70;;;16.90;99.90;;;;;;5088937;28;20485;-69
2023/07/02 04:27:44;;;;;;;19.50;10.50;;;16.90;99.90;;;;;;5088876;28;20934;-69
2023/07/02 04:30:11;;;;;;;19.37;11.30;;;16.90;99.90;;;;;;5088701;28;20434;-69
2023/07/02 04:32:40;;;;;;;15.47;9.70;;;16.80;99.90;;;;;;5083764;28;20468;-69
2023/07/02 04:35:11;;;;;;;16.53;10.57;;;16.80;99.90;;;;;;5088440;28;20492;-69
2023/07/02 04:37:36;;;;;;;15.03;10.30;;;16.80;99.90;;;;;;5082323;28;20419;-69
2023/07/02 04:40:12;;;;;;;15.80;10.03;;;16.90;99.90;;;;;;5075509;28;20435;-69
2023/07/02 04:42:38;;;;;;;14.00;10.90;;;16.90;99.90;;;;;;5088015;28;20414;-69
2023/07/02 04:45:05;;;;;;;14.63;10.40;;;17.00;99.90;;;;;;5088450;28;20407;-69
2023/07/02 04:47:31;;;;;;;17.00;11.53;;;16.90;99.90;;;;;;5088762;28;20782;-69
2023/07/02 04:49:57;;;;;;;17.10;11.80;;;16.80;99.90;;;;;;5088661;28;20449;-69
2023/07/02 04:52:23;;;;;;;17.50;11.80;;;16.80;99.90;;;;;;5087936;28;20180;-69
2023/07/02 04:54:49;;;;;;;21.90;11.83;;;16.80;99.90;;;;;;5088596;28;20850;-69
2023/07/02 04:57:15;;;;;;;17.77;11.27;;;16.80;99.90;;;;;;5087028;28;20275;-69
2023/07/02 04:59:44;;;;;;;21.40;11.47;;;16.80;99.90;;;;;;5088778;28;20188;-69
2023/07/02 05:02:10;;;;;;;17.93;11.50;;;16.80;99.90;;;;;;5088080;28;20176;-69
2023/07/02 05:04:39;;;;;;;18.00;11.97;;;16.80;99.90;;;;;;5088253;28;20426;-69
2023/07/02 05:07:05;;;;;;;21.73;11.63;;;16.90;99.90;;;;;;5088630;28;20414;-69
2023/07/02 05:09:31;;;;;;;17.43;10.80;;;16.90;99.90;;;;;;5088272;28;20752;-69
2023/07/02 05:11:58;;;;;;;17.93;11.97;;;16.90;99.90;;;;;;5082930;28;20185;-69
2023/07/02 05:14:23;;;;;;;19.20;13.17;;;16.90;99.90;;;;;;5083850;28;20544;-69
2023/07/02 05:16:49;;;;;;;20.27;12.67;;;17.00;99.90;;;;;;5088390;28;20506;-69
2023/07/02 05:19:15;;;;;;;20.73;13.07;;;16.90;99.90;;;;;;5089081;28;20402;-69
2023/07/02 05:21:41;;;;;;;16.00;11.50;;;17.00;99.90;;;;;;5092576;28;20748;-69
2023/07/02 05:24:08;;;;;;;18.10;12.00;;;17.00;99.90;;;;;;5090688;28;20583;-69
2023/07/02 05:26:34;;;;;;;20.07;12.47;;;17.00;99.90;;;;;;5092394;28;20183;-69
2023/07/02 05:29:00;;;;;;;24.10;14.93;;;17.10;99.90;;;;;;5090995;28;20403;-69
2023/07/02 05:31:26;;;;;;;21.70;13.57;;;17.10;99.90;;;;;;5092278;28;20425;-69
2023/07/02 05:33:53;;;;;;;16.60;11.67;;;17.10;99.90;;;;;;5091314;28;20454;-69
2023/07/02 05:36:19;;;;;;;16.57;11.23;;;17.10;99.90;;;;;;5092181;28;20287;-69
2023/07/02 05:38:45;;;;;;;17.03;12.97;;;17.10;99.90;;;;;;5090913;28;20844;-70
2023/07/02 05:41:10;;;;;;;25.33;13.10;;;17.20;99.90;;;;;;5092129;28;20521;-69
2023/07/02 05:43:36;;;;;;;19.20;12.47;;;17.20;99.90;;;;;;5091189;28;20232;-69
2023/07/02 05:46:02;;;;;;;24.17;13.40;;;17.20;99.90;;;;;;5092164;28;20176;-69
2023/07/02 05:48:27;;;;;;;22.57;14.30;;;17.30;99.90;;;;;;5091939;28;20247;-69
2023/07/02 05:50:54;;;;;;;21.30;13.40;;;17.20;99.90;;;;;;5091990;28;20193;-69
2023/07/02 05:53:20;;;;;;;22.10;14.40;;;17.20;99.90;;;;;;5090825;28;20204;-69
2023/07/02 05:55:45;;;;;;;20.27;13.37;;;17.20;99.90;;;;;;5090820;28;20485;-69
2023/07/02 05:58:11;;;;;;;18.27;13.00;;;17.30;99.90;;;;;;5087371;28;20180;-69
2023/07/02 06:00:37;;;;;;;19.43;14.13;;;17.30;99.90;;;;;;5091772;28;20253;-69
2023/07/02 06:03:02;;;;;;;22.13;14.37;;;17.30;99.90;;;;;;5090933;28;20179;-69
2023/07/02 06:05:28;;;;;;;19.60;12.50;;;17.40;99.90;;;;;;5091767;28;20192;-69
2023/07/02 06:07:54;;;;;;;20.50;13.00;;;17.40;99.90;;;;;;5091557;28;20415;-69
2023/07/02 06:10:20;;;;;;;22.93;14.47;;;17.50;99.90;;;;;;5085710;28;20212;-69
2023/07/02 06:12:45;;;;;;;23.97;14.67;;;17.60;99.90;;;;;;5090429;28;20279;-69
2023/07/02 06:15:11;;;;;;;24.03;13.93;;;17.60;99.90;;;;;;5090269;28;20729;-69
2023/07/02 06:17:37;;;;;;;23.00;14.90;;;17.70;99.90;;;;;;5091310;28;20176;-69
2023/07/02 06:20:06;;;;;;;25.03;14.30;;;17.70;99.90;;;;;;5091320;28;20250;-70
2023/07/02 06:22:32;;;;;;;26.60;14.20;;;17.70;99.90;;;;;;5087170;28;20202;-69
2023/07/02 06:24:57;;;;;;;22.60;14.40;;;17.80;99.90;;;;;;5090473;28;20954;-69
2023/07/02 06:27:23;;;;;;;23.60;15.00;;;17.90;99.90;;;;;;5081308;28;20223;-68
2023/07/02 06:29:50;;;;;;;22.47;14.50;;;18.00;99.90;;;;;;5090412;28;20201;-67
2023/07/02 06:32:16;;;;;;;21.43;14.50;;;18.00;99.90;;;;;;5089184;28;20549;-70
2023/07/02 06:34:42;;;;;;;23.00;15.33;;;18.20;99.90;;;;;;5090754;28;20446;-69
2023/07/02 06:37:08;;;;;;;22.47;14.40;;;18.30;99.90;;;;;;5081332;28;20792;-73
2023/07/02 06:39:34;;;;;;;22.17;15.20;;;18.50;99.90;;;;;;5087240;28;20733;-70
2023/07/02 06:41:59;;;;;;;28.40;14.70;;;18.50;99.90;;;;;;5089196;28;20421;-68
2023/07/02 06:44:25;;;;;;;25.87;16.17;;;18.50;99.90;;;;;;5086969;28;20181;-69
2023/07/02 06:46:51;;;;;;;29.87;14.40;;;18.50;99.90;;;;;;5078776;28;20929;-70
2023/07/02 06:49:16;;;;;;;21.57;14.80;;;18.60;99.90;;;;;;5067577;28;20212;-69
2023/07/02 06:51:42;;;;;;;20.87;12.37;;;18.60;99.90;;;;;;5069333;28;20192;-68
2023/07/02 06:54:08;;;;;;;18.97;13.67;;;18.60;99.90;;;;;;5069558;28;20209;-68
2023/07/02 06:56:34;;;;;;;22.40;13.10;;;18.70;99.90;;;;;;5070678;28;20507;-68
2023/07/02 06:59:03;;;;;;;19.50;13.37;;;18.80;99.90;;;;;;5070442;28;20173;-69
2023/07/02 07:01:28;;;;;;;22.27;12.60;;;18.90;99.90;;;;;;5070003;28;20203;-69
2023/07/02 07:03:54;;;;;;;18.00;12.00;;;19.00;99.90;;;;;;5078080;28;21110;-68
2023/07/02 07:06:20;;;;;;;20.93;11.73;;;19.00;99.90;;;;;;5089765;28;20196;-69
2023/07/02 07:08:46;;;;;;;20.27;12.50;;;19.00;99.90;;;;;;5089797;28;20181;-69
2023/07/02 07:11:11;;;;;;;20.53;11.30;;;18.90;99.90;;;;;;5088576;28;20441;-69
2023/07/02 07:13:37;;;;;;;17.20;10.63;;;18.90;99.90;;;;;;5088612;28;20207;-70
2023/07/02 07:16:03;;;;;;;18.73;11.37;;;19.10;99.90;;;;;;5088758;28;20237;-68
2023/07/02 07:18:29;;;;;;;20.37;12.03;;;19.20;99.90;;;;;;5090076;28;20269;-69
2023/07/02 07:20:55;;;;;;;16.63;10.50;;;19.40;99.90;;;;;;5090138;28;20673;-70
2023/07/02 07:23:21;;;;;;;19.03;11.57;;;19.60;99.90;;;;;;5079931;28;20234;-69
2023/07/02 07:25:47;;;;;;;16.90;10.00;;;19.70;99.90;;;;;;5080917;28;20517;-69
2023/07/02 07:28:15;;;;;;;19.07;10.73;;;19.90;99.90;;;;;;5086269;28;20276;-69
2023/07/02 07:30:44;;;;;;;19.10;10.23;;;20.00;99.90;;;;;;5083366;28;20211;-69
2023/07/02 07:33:10;;;;;;;17.63;10.60;;;19.80;99.90;;;;;;5081760;28;20455;-69
2023/07/02 07:35:36;;;;;;;20.10;12.03;;;19.70;99.90;;;;;;5083854;28;20407;-69
2023/07/02 07:38:02;;;;;;;14.00;9.93;;;19.60;99.90;;;;;;5085225;28;20176;-69
2023/07/02 07:40:28;;;;;;;14.43;10.10;;;19.50;99.90;;;;;;5076115;28;20197;-69
2023/07/02 07:42:53;;;;;;;18.53;10.13;;;19.60;99.90;;;;;;5067020;28;20549;-69
2023/07/02 07:45:19;;;;;;;15.07;10.43;;;19.60;99.90;;;;;;5069046;28;20415;-69
2023/07/02 07:47:45;;;;;;;15.73;9.50;;;19.50;99.90;;;;;;5069667;28;20715;-70
2023/07/02 07:50:11;;;;;;;13.60;9.70;;;19.40;99.90;;;;;;5069426;28;20201;-68
2023/07/02 07:52:41;;;;;;;16.80;10.57;;;19.40;99.90;;;;;;5067064;28;20177;-68
2023/07/02 07:55:07;;;;;;;14.50;9.30;;;19.50;99.90;;;;;;5068984;28;20176;-69
2023/07/02 07:57:36;;;;;;;16.63;10.07;;;19.60;99.90;;;;;;5074211;28;20399;-69
2023/07/02 08:00:05;;;;;;;15.97;9.77;;;19.60;99.90;;;;;;5080772;28;20446;-69
2023/07/02 08:02:30;;;;;;;16.33;10.00;;;19.60;99.90;;;;;;5087879;28;20446;-69
2023/07/02 08:04:56;;;;;;;13.10;9.00;;;19.60;99.90;;;;;;5088864;28;20465;-69
2023/07/02 08:07:22;;;;;;;14.80;10.77;;;19.60;99.90;;;;;;5089340;28;20233;-70
2023/07/02 08:09:48;;;;;;;14.57;10.00;;;19.60;99.90;;;;;;5089425;28;20692;-68
2023/07/02 08:12:14;;;;;;;17.87;10.83;;;19.60;99.90;;;;;;5088832;28;20541;-69
2023/07/02 08:14:39;;;;;;;17.50;10.40;;;19.60;99.90;;;;;;5089010;28;20480;-69
2023/07/02 08:17:06;;;;;;;15.20;9.53;;;19.40;99.90;;;;;;5089378;28;20207;-69
2023/07/02 08:19:31;;;;;;;14.77;9.00;;;19.30;99.90;;;;;;5088997;28;20172;-69
2023/07/02 08:21:57;;;;;;;13.53;8.73;;;19.30;99.90;;;;;;5086138;28;21007;-69
2023/07/02 08:24:23;;;;;;;15.57;10.17;;;19.30;99.90;;;;;;5084171;28;20180;-69
2023/07/02 08:26:49;;;;;;;13.77;9.87;;;19.20;99.90;;;;;;5088910;28;20184;-69
2023/07/02 08:29:15;;;;;;;16.47;10.20;;;19.30;99.90;;;;;;5085081;28;20180;-69
2023/07/02 08:31:41;;;;;;;21.40;11.60;;;19.30;99.90;;;;;;5085929;28;20530;-69
2023/07/02 08:34:07;;;;;;;17.60;10.77;;;19.40;99.90;;;;;;5080444;28;20462;-70
2023/07/02 08:36:33;;;;;;;17.47;10.43;;;19.50;99.90;;;;;;5080399;28;20237;-69
2023/07/02 08:38:58;;;;;;;18.07;10.10;;;19.50;99.90;;;;;;5077314;28;20946;-69
2023/07/02 08:41:24;;;;;;;14.67;9.90;;;19.60;99.90;;;;;;5076950;28;20219;-69
2023/07/02 08:43:51;;;;;;;15.50;9.13;;;19.70;99.90;;;;;;5087400;28;20188;-69
2023/07/02 08:46:17;;;;;;;15.83;9.97;;;19.90;99.90;;;;;;5088840;28;20604;-70
2023/07/02 08:48:43;;;;;;;13.00;9.23;;;19.90;99.90;;;;;;5088815;28;20414;-70
2023/07/02 08:51:09;;;;;;;16.20;8.60;;;19.90;99.80;;;;;;5088853;28;20460;-70
2023/07/02 08:53:35;;;;;;;14.00;8.20;;;19.90;99.60;;;;;;5086785;28;20207;-68
2023/07/02 08:56:02;;;;;;;15.43;8.80;;;19.90;99.70;;;;;;5092442;28;20169;-68
2023/07/02 08:58:28;;;;;;;10.60;7.60;;;19.80;97.80;;;;;;5091678;28;20456;-69
2023/07/02 09:01:09;;;;;;;15.00;8.20;;;19.80;97.70;;;;;;5092818;28;20457;-69
2023/07/02 09:03:39;;;;;;;15.77;7.90;;;19.80;96.60;;;;;;5091789;28;20206;-69
2023/07/02 09:06:09;;;;;;;12.93;7.33;;;19.80;96.20;;;;;;5092977;28;20495;-69
2023/07/02 09:08:36;;;;;;;12.03;8.10;;;19.90;97.00;;;;;;5092747;28;20410;-69
2023/07/02 09:11:16;;;;;;;10.67;7.13;;;20.00;97.20;;;;;;5092620;28;20469;-68
2023/07/02 09:14:00;;;;;;;15.80;7.93;;;19.90;97.70;;;;;;5091589;28;20866;-69
2023/07/02 09:16:31;;;;;;;11.73;7.77;;;19.90;97.80;;;;;;5092712;28;20403;-70
2023/07/02 09:19:07;;;;;;;9.17;6.60;;;20.00;97.50;;;;;;5092594;28;20410;-70
2023/07/02 09:21:41;;;;;;;11.80;7.73;;;20.10;97.90;;;;;;5092524;28;20507;-69
2023/07/02 09:24:15;;;;;;;11.30;7.57;;;20.10;97.10;;;;;;5091552;28;20418;-69
2023/07/02 09:26:49;;;;;;;13.40;8.07;;;20.10;97.30;;;;;;5092476;28;20414;-68
2023/07/02 09:29:23;;;;;;;13.53;7.20;;;20.10;97.30;;;;;;5092434;28;20421;-68
2023/07/02 09:31:49;;;;;;;12.43;7.77;;;20.10;97.30;;;;;;5092490;28;20410;-70
2023/07/02 09:34:15;;;;;;;12.43;8.20;;;20.00;96.80;;;;;;5091337;28;20489;-69
2023/07/02 09:36:41;;;;;;;10.43;7.50;;;20.00;97.10;;;;;;5092142;28;20515;-70
2023/07/02 09:39:14;;;;;;;11.73;7.30;;;20.00;97.50;;;;;;5092301;28;20406;-70
2023/07/02 09:41:42;;;;;;;12.87;8.03;;;20.10;97.30;;;;;;5092009;28;20428;-69
2023/07/02 09:44:09;;;;;;;14.80;9.10;;;20.20;96.90;;;;;;5091103;28;20413;-68
2023/07/02 09:46:40;;;;;;;14.73;8.10;;;20.30;97.00;;;;;;5092101;28;20843;-69
2023/07/02 09:49:10;;;;;;;10.27;7.43;;;20.40;97.10;;;;;;5092065;28;20440;-69
2023/07/02 09:51:36;;;;;;;14.33;8.30;;;20.50;97.20;;;;;;5091848;28;20483;-70
2023/07/02 09:54:02;;;;;;;10.97;7.93;;;20.70;96.90;;;;;;5090018;28;20453;-69
2023/07/02 09:56:27;;;;;;;15.73;7.33;;;20.90;97.10;;;;;;5091764;28;20181;-70
2023/07/02 09:58:53;;;;;;;10.90;7.77;;;21.10;96.60;;;;;;5088455;28;20607;-69
2023/07/02 10:01:19;;;;;;;12.83;8.23;;;21.10;96.40;;;;;;5091868;28;20185;-69
2023/07/02 10:03:45;;;;;;;11.43;7.73;;;21.20;95.80;;;;;;5090772;28;20252;-68
2023/07/02 10:06:10;;;;;;;12.90;7.40;;;21.30;95.60;;;;;;5091547;28;20172;-69
2023/07/02 10:08:36;;;;;;;14.97;8.50;;;21.40;96.40;;;;;;5091619;28;20582;-70
2023/07/02 10:11:15;;;;;;;13.60;7.90;;;21.40;95.70;;;;;;5091688;28;20189;-69
2023/07/02 10:13:41;;;;;;;14.03;8.07;;;21.40;95.80;;;;;;5090715;28;20199;-68
2023/07/02 10:16:07;;;;;;;15.93;9.10;;;21.20;95.70;;;;;;5091669;28;20766;-68
2023/07/02 10:18:34;;;;;;;18.13;8.57;;;21.10;96.10;;;;;;5091630;28;20411;-69
2023/07/02 10:21:00;;;;;;;12.77;9.70;;;21.00;96.90;;;;;;5091266;28;20225;-69
2023/07/02 10:23:36;;;;;;;16.40;9.40;;;20.90;97.10;;;;;;5090259;28;20497;-68
2023/07/02 10:26:18;;;;;;;12.03;7.80;;;20.80;95.80;;;;;;5091382;28;20418;-68
2023/07/02 10:28:56;;;;;;;14.67;9.07;;;20.70;96.40;;;;;;5091213;28;20441;-69
2023/07/02 10:31:22;;;;;;;14.77;8.70;;;20.60;96.10;;;;;;5091112;28;20517;-69
2023/07/02 10:33:48;;;;;;;11.63;7.83;;;20.60;96.70;;;;;;5090134;28;20541;-68
2023/07/02 10:36:20;;;;;;;12.70;8.63;;;20.50;96.90;;;;;;5091182;28;20410;-69
2023/07/02 10:38:47;;;;;;;13.83;8.60;;;20.50;97.70;;;;;;5091081;28;20173;-68
2023/07/02 10:41:23;;;;;;;12.60;9.10;;;20.60;98.00;;;;;;5091040;28;20426;-70
2023/07/02 10:43:49;;;;;;;11.93;8.37;;;20.60;97.40;;;;;;5090019;28;20406;-69
2023/07/02 10:46:21;;;;;;;13.33;7.97;;;20.60;97.60;;;;;;5090863;28;20418;-70
2023/07/02 10:48:55;;;;;;;16.63;9.13;;;20.60;97.80;;;;;;5090983;28;20203;-69
2023/07/02 10:51:21;;;;;;;14.97;8.47;;;20.50;97.20;;;;;;5090826;28;20517;-68
2023/07/02 10:54:00;;;;;;;15.97;9.10;;;20.50;97.20;;;;;;5089800;28;20809;-70
2023/07/02 10:56:29;;;;;;;19.60;8.47;;;20.60;98.00;;;;;;5090799;28;20406;-69
2023/07/02 10:58:55;;;;;;;11.60;7.97;;;20.70;97.20;;;;;;5090722;28;20784;-69
2023/07/02 11:01:25;;;;;;;19.47;8.60;;;20.90;97.20;;;;;;5090675;28;20789;-68
2023/07/02 11:04:03;;;;;;;14.30;8.50;;;21.10;96.40;;;;;;5089664;28;20426;-68
2023/07/02 11:06:30;;;;;;;8.80;6.83;;;21.20;95.70;;;;;;5090399;28;20825;-69
2023/07/02 11:08:56;;;;;;;11.27;7.80;;;21.20;94.60;;;;;;5090470;28;20422;-70
2023/07/02 11:11:23;;;;;;;14.10;8.53;;;21.20;94.10;;;;;;5090466;28;20457;-69
2023/07/02 11:13:50;;;;;;;13.57;9.47;;;21.20;94.60;;;;;;5089322;28;20486;-69
2023/07/02 11:16:28;;;;;;;10.20;7.83;;;21.10;94.80;;;;;;5090428;28;20406;-69
2023/07/02 11:19:14;;;;;;;8.90;6.80;;;21.00;94.70;;;;;;5089905;28;20413;-69
2023/07/02 11:21:51;;;;;;;11.47;7.27;;;21.00;94.40;;;;;;5089974;28;20499;-69
2023/07/02 11:24:36;;;;;;;14.03;8.60;;;20.90;94.20;;;;;;5089378;28;20781;-69
2023/07/02 11:27:05;;;;;;;12.70;8.43;;;20.90;94.00;;;;;;5090038;28;20427;-69
2023/07/02 11:29:32;;;;;;;14.17;8.47;;;20.80;93.40;;;;;;5088811;28;20415;-70
2023/07/02 11:32:13;;;;;;;15.13;7.83;;;20.70;94.30;;;;;;5089672;28;20411;-69
2023/07/02 11:34:39;;;;;;;17.63;8.90;;;20.80;94.50;;;;;;5089635;28;20461;-69
2023/07/02 11:37:06;;;;;;;12.90;7.37;;;21.00;93.90;;;;;;5089796;28;20407;-69
2023/07/02 11:39:32;;;;;;;11.47;8.13;;;21.10;94.30;;;;;;5089802;28;20541;-69
2023/07/02 11:41:58;;;;;;;9.73;7.60;;;21.40;95.30;;;;;;5089449;28;20444;-69
2023/07/02 11:44:24;;;;;;;10.73;7.27;;;21.60;95.90;;;;;;5088986;28;20411;-69
2023/07/02 11:46:50;;;;;;;9.10;6.43;;;21.80;95.80;;;;;;5089771;28;20407;-69
2023/07/02 11:49:15;;;;;;;10.80;6.97;;;21.90;94.30;;;;;;5089787;28;20176;-69
2023/07/02 11:51:48;;;;;;;14.50;7.37;;;21.90;95.80;;;;;;5089641;28;20715;-69
2023/07/02 11:54:14;;;;;;;12.17;7.03;;;22.00;95.00;;;;;;5069565;28;20711;-69
2023/07/02 11:56:41;;;;;;;12.83;7.53;;;22.00;92.90;;;;;;5089448;28;20410;-69
2023/07/02 11:59:07;;;;;;;10.93;6.77;;;21.90;94.00;;;;;;5088299;28;20951;-69
2023/07/02 12:01:33;;;;;;;11.30;6.97;;;21.90;94.40;;;;;;5088305;28;20426;-69
2023/07/02 12:03:59;;;;;;;9.30;6.90;;;21.80;94.00;;;;;;5088347;28;20549;-69
2023/07/02 12:06:25;;;;;;;8.90;6.30;;;21.60;93.80;;;;;;5089540;28;20172;-69
2023/07/02 12:08:50;;;;;;;9.23;6.73;;;21.60;94.50;;;;;;5089367;28;20437;-69
2023/07/02 12:11:16;;;;;;;11.37;6.77;;;21.60;94.30;;;;;;5089269;28;20326;-69
2023/07/02 12:13:42;;;;;;;12.13;6.93;;;21.50;92.40;;;;;;5088396;28;20204;-69
2023/07/02 12:16:07;;;;;;;12.17;7.40;;;21.40;93.50;;;;;;5089462;28;20245;-69
2023/07/02 12:18:33;;;;;;;11.13;7.43;;;21.50;93.90;;;;;;5089176;28;20187;-69
2023/07/02 12:20:59;;;;;;;9.37;6.60;;;21.50;94.20;;;;;;5089316;28;20650;-70
2023/07/02 12:23:24;;;;;;;11.60;6.40;;;21.70;92.80;;;;;;5088148;28;20176;-69
2023/07/02 12:25:50;;;;;;;9.60;6.20;;;21.80;93.40;;;;;;5089129;28;20176;-70
2023/07/02 12:28:16;;;;;;;10.03;6.63;;;21.90;92.70;;;;;;5087694;28;20843;-69
2023/07/02 12:30:41;;;;;;;8.67;5.57;;;21.80;92.00;;;;;;5089016;28;20199;-69
2023/07/02 12:33:07;;;;;;;8.83;6.30;;;21.80;92.50;;;;;;5087716;28;20239;-69
2023/07/02 12:35:33;;;;;;;9.83;5.93;;;21.90;92.80;;;;;;5088996;28;20175;-69